createdAt,value
2019-02-23T00:03:58.730Z,99.90
2019-02-23T00:06:40.810Z,99.90
2019-02-23T00:09:23.098Z,99.90
2019-02-23T00:12:05.238Z,99.90
2019-02-23T00:14:47.108Z,99.90
2019-02-23T00:17:29.262Z,99.90
2019-02-23T00:20:18.588Z,99.90
2019-02-23T00:23:04.799Z,99.90
2019-02-23T00:25:47.034Z,99.90
2019-02-23T00:28:29.468Z,99.90
2019-02-23T00:31:11.780Z,99.90
2019-02-23T00:33:53.918Z,99.90
2019-02-23T00:36:35.817Z,99.90
2019-02-23T00:39:36.894Z,99.90
2019-02-23T00:42:22.953Z,99.90
2019-02-23T00:47:54.079Z,99.90
2019-02-23T00:50:42.036Z,99.90
2019-02-23T00:53:23.946Z,99.90
2019-02-23T00:55:54.223Z,99.90
2019-02-23T01:01:44.750Z,99.90
2019-02-23T01:04:26.691Z,99.90
2019-02-23T01:07:08.539Z,99.90
2019-02-23T01:09:50.415Z,99.90
2019-02-23T01:12:20.718Z,99.90
2019-02-23T01:15:04.339Z,99.90
2019-02-23T01:17:46.689Z,99.90
2019-02-23T01:20:28.682Z,99.90
2019-02-23T01:23:10.964Z,99.90
2019-02-23T01:25:52.848Z,99.90
2019-02-23T01:28:35.218Z,99.90
2019-02-23T01:31:17.236Z,99.90
2019-02-23T01:37:24.678Z,99.90
2019-02-23T01:40:06.727Z,99.90
2019-02-23T01:42:48.828Z,99.90
2019-02-23T01:45:30.379Z,99.90
2019-02-23T01:48:12.200Z,99.90
2019-02-23T01:50:53.937Z,99.90
2019-02-23T01:53:36.628Z,99.90
2019-02-23T01:59:25.316Z,99.90
2019-02-23T02:02:07.514Z,99.90
2019-02-23T02:04:49.542Z,99.90
2019-02-23T02:07:32.664Z,99.90
2019-02-23T02:10:15.037Z,99.90
2019-02-23T02:12:57.009Z,99.90
2019-02-23T02:15:39.125Z,99.90
2019-02-23T02:18:21.247Z,99.90
2019-02-23T02:21:03.657Z,99.90
2019-02-23T02:23:45.753Z,99.90
2019-02-23T02:26:28.083Z,99.90
2019-02-23T02:29:10.301Z,99.90
2019-02-23T02:31:52.484Z,99.90
2019-02-23T02:34:34.650Z,99.90
2019-02-23T02:37:16.839Z,99.90
2019-02-23T02:39:59.150Z,99.90
2019-02-23T02:42:41.309Z,99.90
2019-02-23T02:45:23.270Z,99.90
2019-02-23T02:47:53.540Z,99.90
2019-02-23T02:50:35.801Z,99.90
2019-02-23T02:53:18.012Z,99.90
2019-02-23T02:56:00.233Z,99.90
2019-02-23T02:58:42.323Z,99.90
2019-02-23T03:01:24.541Z,99.90
2019-02-23T03:04:06.729Z,99.90
2019-02-23T03:06:48.822Z,99.90
2019-02-23T03:09:31.249Z,99.90
2019-02-23T03:12:13.368Z,99.90
2019-02-23T03:14:55.827Z,99.90
2019-02-23T03:17:37.911Z,99.90
2019-02-23T03:20:19.918Z,99.90
2019-02-23T03:23:02.219Z,99.90
2019-02-23T03:28:52.368Z,99.90
2019-02-23T03:34:47.528Z,99.90
2019-02-23T03:37:29.523Z,99.90
2019-02-23T03:40:11.588Z,99.90
2019-02-23T03:42:53.407Z,99.90
2019-02-23T03:45:35.426Z,99.90
2019-02-23T03:48:17.327Z,99.90
2019-02-23T03:50:59.361Z,99.90
2019-02-23T03:53:41.290Z,99.90
2019-02-23T03:56:23.054Z,99.90
2019-02-23T03:59:05.085Z,99.90
2019-02-23T04:01:47.326Z,99.90
2019-02-23T04:04:29.531Z,99.90
2019-02-23T04:07:11.777Z,99.90
2019-02-23T04:09:54.218Z,99.90
2019-02-23T04:12:36.191Z,99.90
2019-02-23T04:15:21.532Z,99.90
2019-02-23T04:18:03.718Z,99.90
2019-02-23T04:20:45.706Z,99.90
2019-02-23T04:23:27.587Z,99.90
2019-02-23T04:26:09.652Z,99.90
2019-02-23T04:31:59.044Z,99.90
2019-02-23T04:34:41.151Z,99.90
2019-02-23T04:37:23.749Z,99.90
2019-02-23T04:40:05.390Z,99.90
2019-02-23T04:46:12.830Z,99.90
2019-02-23T04:48:55.503Z,99.90
2019-02-23T04:51:37.932Z,99.90
2019-02-23T04:54:20.661Z,99.90
2019-02-23T04:57:03.042Z,99.90
2019-02-23T04:59:45.177Z,99.90
2019-02-23T05:02:27.576Z,99.90
2019-02-23T05:05:09.522Z,99.90
2019-02-23T05:07:51.763Z,99.90
2019-02-23T05:10:33.989Z,99.90
2019-02-23T05:16:24.803Z,99.90
2019-02-23T05:19:06.364Z,99.90
2019-02-23T05:21:48.580Z,99.90
2019-02-23T05:24:30.398Z,99.90
2019-02-23T05:27:15.750Z,99.90
2019-02-23T05:29:57.718Z,99.90
2019-02-23T05:32:39.865Z,99.90
2019-02-23T05:35:21.614Z,99.90
2019-02-23T05:38:03.499Z,99.90
2019-02-23T05:40:45.441Z,99.90
2019-02-23T05:43:27.189Z,99.90
2019-02-23T05:46:08.956Z,99.90
2019-02-23T05:48:50.974Z,99.90
2019-02-23T05:51:38.708Z,99.90
2019-02-23T05:54:14.882Z,99.90
2019-02-23T05:56:56.893Z,99.90
2019-02-23T05:59:38.974Z,99.90
2019-02-23T06:02:21.114Z,99.90
2019-02-23T06:05:03.566Z,99.90
2019-02-23T06:10:59.305Z,99.90
2019-02-23T06:13:41.361Z,99.90
2019-02-23T06:16:23.345Z,99.90
2019-02-23T06:19:05.342Z,99.90
2019-02-23T06:21:53.629Z,99.90
2019-02-23T06:24:31.079Z,99.90
2019-02-23T06:27:13.125Z,99.90
2019-02-23T06:29:55.315Z,99.90
2019-02-23T06:32:37.524Z,99.90
2019-02-23T06:35:19.777Z,99.90
2019-02-23T06:37:53.363Z,99.90
2019-02-23T06:41:02.353Z,99.90
2019-02-23T06:43:44.439Z,99.90
2019-02-23T06:46:26.597Z,99.90
2019-02-23T06:49:08.281Z,99.90
2019-02-23T06:51:50.514Z,99.90
2019-02-23T06:57:55.301Z,99.90
2019-02-23T07:00:37.729Z,99.90
2019-02-23T07:03:08.190Z,99.90
2019-02-23T07:05:58.824Z,99.90
2019-02-23T07:08:42.287Z,99.90
2019-02-23T07:11:24.824Z,99.90
2019-02-23T07:14:07.837Z,99.90
2019-02-23T07:16:50.056Z,99.90
2019-02-23T07:19:31.851Z,99.90
2019-02-23T07:22:15.720Z,99.90
2019-02-23T07:24:57.758Z,99.90
2019-02-23T07:27:39.645Z,99.90
2019-02-23T07:30:21.154Z,99.90
2019-02-23T07:33:03.036Z,99.90
2019-02-23T07:35:44.986Z,99.90
2019-02-23T07:38:26.662Z,99.90
2019-02-23T07:41:08.726Z,99.90
2019-02-23T07:43:51.958Z,99.90
2019-02-23T07:46:34.115Z,99.90
2019-02-23T07:49:16.638Z,99.90
2019-02-23T07:52:04.780Z,99.90
2019-02-23T07:54:46.969Z,99.90
2019-02-23T07:57:35.164Z,99.90
2019-02-23T08:00:05.673Z,99.90
2019-02-23T08:02:48.440Z,99.90
2019-02-23T08:05:30.509Z,99.90
2019-02-23T08:08:12.601Z,99.90
2019-02-23T08:10:55.150Z,99.90
2019-02-23T08:13:40.610Z,99.90
2019-02-23T08:16:21.416Z,99.90
2019-02-23T08:19:03.898Z,99.90
2019-02-23T08:21:46.190Z,99.90
2019-02-23T08:24:28.334Z,99.90
2019-02-23T08:27:10.109Z,99.90
2019-02-23T08:29:52.017Z,99.90
2019-02-23T08:32:34.555Z,99.90
2019-02-23T08:35:16.701Z,99.90
2019-02-23T08:37:58.470Z,99.90
2019-02-23T08:44:05.540Z,99.90
2019-02-23T08:46:47.689Z,99.90
2019-02-23T08:49:31.161Z,99.90
2019-02-23T08:52:13.118Z,99.90
2019-02-23T08:54:55.651Z,99.90
2019-02-23T08:57:37.650Z,99.90
2019-02-23T09:00:19.949Z,99.90
2019-02-23T09:03:02.263Z,99.90
2019-02-23T09:05:34.548Z,99.90
2019-02-23T09:08:24.240Z,99.90
2019-02-23T09:11:06.602Z,99.90
2019-02-23T09:13:48.851Z,99.90
2019-02-23T09:16:31.577Z,99.90
2019-02-23T09:19:14.247Z,99.90
2019-02-23T09:25:06.277Z,99.90
2019-02-23T09:27:48.449Z,99.90
2019-02-23T09:30:31.827Z,99.90
2019-02-23T09:33:14.621Z,99.90
2019-02-23T09:35:58.394Z,99.90
2019-02-23T09:38:41.708Z,99.90
2019-02-23T09:41:23.970Z,99.90
2019-02-23T09:44:06.139Z,99.90
2019-02-23T09:46:48.027Z,99.90
2019-02-23T09:49:30.034Z,99.90
2019-02-23T09:52:12.068Z,99.90
2019-02-23T09:54:55.229Z,99.90
2019-02-23T09:57:37.311Z,99.90
2019-02-23T10:00:19.479Z,99.90
2019-02-23T10:03:02.133Z,99.90
2019-02-23T10:05:44.509Z,99.90
2019-02-23T10:08:27.063Z,99.90
2019-02-23T10:11:09.193Z,99.90
2019-02-23T10:13:50.891Z,99.90
2019-02-23T10:16:32.777Z,99.90
2019-02-23T10:19:03.043Z,99.90
2019-02-23T10:21:52.397Z,99.90
2019-02-23T10:24:36.192Z,99.90
2019-02-23T10:27:18.807Z,99.90
2019-02-23T10:30:00.810Z,99.90
2019-02-23T10:32:44.467Z,99.90
2019-02-23T10:35:26.546Z,99.90
2019-02-23T10:38:10.668Z,99.90
2019-02-23T10:40:56.294Z,99.90
2019-02-23T10:43:42.456Z,99.90
2019-02-23T10:46:28.644Z,99.90
2019-02-23T10:49:11.691Z,99.90
2019-02-23T10:51:54.434Z,99.90
2019-02-23T10:54:36.186Z,99.90
2019-02-23T10:57:18.269Z,99.90
2019-02-23T11:00:00.254Z,99.90
2019-02-23T11:05:50.935Z,99.90
2019-02-23T11:08:33.188Z,99.90
2019-02-23T11:11:17.234Z,99.90
2019-02-23T11:13:59.736Z,99.90
2019-02-23T11:16:43.046Z,99.90
2019-02-23T11:19:25.626Z,99.90
2019-02-23T11:22:09.085Z,99.90
2019-02-23T11:24:50.755Z,99.90
2019-02-23T11:27:32.990Z,99.90
2019-02-23T11:30:15.333Z,99.90
2019-02-23T11:32:57.406Z,99.90
2019-02-23T11:35:39.905Z,99.90
2019-02-23T11:38:22.871Z,99.90
2019-02-23T11:41:04.886Z,99.90
2019-02-23T11:43:46.791Z,99.90
2019-02-23T11:46:30.847Z,99.90
2019-02-23T11:49:14.855Z,99.90
2019-02-23T11:51:57.146Z,99.90
2019-02-23T11:58:07.767Z,99.90
2019-02-23T12:00:50.014Z,99.90
2019-02-23T12:03:31.958Z,99.90
2019-02-23T12:06:14.359Z,99.90
2019-02-23T12:08:57.421Z,99.90
2019-02-23T12:11:39.809Z,99.90
2019-02-23T12:17:30.389Z,99.90
2019-02-23T12:20:12.558Z,99.90
2019-02-23T12:23:13.738Z,99.90
2019-02-23T12:25:55.789Z,99.90
2019-02-23T12:28:37.681Z,99.90
2019-02-23T12:31:19.870Z,99.90
2019-02-23T12:34:02.010Z,99.90
2019-02-23T12:36:44.399Z,99.90
2019-02-23T12:42:33.625Z,99.90
2019-02-23T12:45:15.510Z,99.90
2019-02-23T12:47:57.634Z,99.90
2019-02-23T12:54:05.174Z,99.90
2019-02-23T12:56:48.084Z,99.60
2019-02-23T12:59:30.304Z,99.60
2019-02-23T13:02:12.435Z,99.10
2019-02-23T13:04:54.552Z,97.90
2019-02-23T13:07:55.667Z,98.40
2019-02-23T13:10:37.302Z,97.70
2019-02-23T13:13:38.916Z,97.50
2019-02-23T13:16:21.277Z,96.20
2019-02-23T13:22:28.222Z,95.20
2019-02-23T13:25:10.197Z,95.70
2019-02-23T13:28:10.991Z,95.40
2019-02-23T13:30:52.994Z,95.10
2019-02-23T13:33:34.813Z,95.40
2019-02-23T13:39:30.038Z,94.10
2019-02-23T13:42:11.981Z,94.40
2019-02-23T13:44:54.159Z,93.70
2019-02-23T13:47:35.762Z,93.00
2019-02-23T13:50:28.420Z,91.70
2019-02-23T13:53:10.525Z,91.50
2019-02-23T13:55:53.657Z,91.70
2019-02-23T14:01:42.978Z,91.50
2019-02-23T14:07:51.381Z,90.80
2019-02-23T14:10:33.609Z,89.60
2019-02-23T14:13:15.672Z,89.50
2019-02-23T14:15:57.578Z,89.40
2019-02-23T14:18:39.496Z,86.50
2019-02-23T14:21:21.356Z,84.70
2019-02-23T14:24:02.979Z,84.40
2019-02-23T14:26:45.169Z,82.80
2019-02-23T14:29:27.261Z,80.60
2019-02-23T14:32:09.250Z,81.20
2019-02-23T14:34:51.439Z,82.50
2019-02-23T14:37:33.557Z,77.20
2019-02-23T14:40:15.621Z,74.60
2019-02-23T14:42:57.615Z,67.20
2019-02-23T14:45:39.460Z,61.30
2019-02-23T14:48:21.177Z,58.90
2019-02-23T14:51:03.031Z,57.10
2019-02-23T14:53:44.866Z,54.10
2019-02-23T14:56:26.869Z,51.10
2019-02-23T14:59:10.908Z,50.00
2019-02-23T15:01:52.831Z,49.10
2019-02-23T15:04:36.386Z,47.70
2019-02-23T15:07:18.609Z,46.00
2019-02-23T15:10:00.739Z,44.70
2019-02-23T15:12:42.662Z,44.20
2019-02-23T15:15:24.534Z,43.50
2019-02-23T15:18:06.654Z,42.70
2019-02-23T15:20:48.617Z,42.70
2019-02-23T15:23:31.559Z,42.40
2019-02-23T15:26:13.487Z,43.10
2019-02-23T15:28:55.617Z,44.30
2019-02-23T15:31:37.236Z,44.80
2019-02-23T15:34:19.525Z,46.40
2019-02-23T15:37:01.588Z,48.50
2019-02-23T15:39:43.606Z,48.60
2019-02-23T15:42:25.561Z,49.40
2019-02-23T15:45:07.781Z,50.70
2019-02-23T15:47:50.255Z,50.80
2019-02-23T15:50:32.668Z,52.10
2019-02-23T15:53:15.072Z,51.30
2019-02-23T15:55:57.449Z,51.60
2019-02-23T15:58:39.284Z,49.50
2019-02-23T16:01:21.500Z,48.50
2019-02-23T16:04:03.448Z,47.40
2019-02-23T16:06:45.470Z,47.10
2019-02-23T16:09:27.853Z,46.30
2019-02-23T16:12:10.152Z,46.90
2019-02-23T16:14:53.566Z,47.00
2019-02-23T16:17:35.915Z,47.50
2019-02-23T16:20:17.881Z,48.10
2019-02-23T16:23:00.118Z,49.00
2019-02-23T16:25:42.409Z,50.20
2019-02-23T16:28:24.311Z,51.80
2019-02-23T16:31:06.553Z,52.10
2019-02-23T16:33:48.613Z,53.20
2019-02-23T16:36:30.664Z,54.00
2019-02-23T16:39:12.407Z,54.70
2019-02-23T16:41:54.229Z,54.80
2019-02-23T16:44:37.356Z,55.50
2019-02-23T16:47:17.741Z,55.60
2019-02-23T16:49:59.682Z,56.90
2019-02-23T16:52:41.795Z,57.80
2019-02-23T16:55:24.053Z,57.80
2019-02-23T16:58:06.179Z,58.50
2019-02-23T17:00:48.167Z,59.40
2019-02-23T17:03:30.210Z,59.90
2019-02-23T17:06:12.396Z,60.40
2019-02-23T17:08:54.615Z,60.40
2019-02-23T17:11:36.690Z,62.40
2019-02-23T17:14:18.811Z,63.60
2019-02-23T17:17:01.117Z,65.30
2019-02-23T17:19:43.166Z,66.90
2019-02-23T17:22:25.362Z,68.00
2019-02-23T17:25:07.676Z,69.70
2019-02-23T17:27:49.798Z,70.80
2019-02-23T17:30:32.307Z,71.50
2019-02-23T17:33:14.373Z,72.60
2019-02-23T17:35:54.818Z,74.20
2019-02-23T17:38:38.101Z,74.60
2019-02-23T17:41:20.094Z,75.30
2019-02-23T17:44:02.279Z,76.10
2019-02-23T17:46:44.529Z,76.80
2019-02-23T17:49:26.784Z,77.40
2019-02-23T17:52:08.846Z,78.70
2019-02-23T17:54:51.182Z,79.50
2019-02-23T17:57:33.252Z,78.90
2019-02-23T18:00:17.683Z,80.40
2019-02-23T18:06:24.158Z,81.90
2019-02-23T18:09:06.212Z,84.00
2019-02-23T18:11:49.930Z,84.50
2019-02-23T18:14:31.879Z,84.80
2019-02-23T18:17:13.825Z,85.10
2019-02-23T18:19:56.194Z,86.50
2019-02-23T18:22:37.915Z,86.20
2019-02-23T18:25:19.963Z,87.30
2019-02-23T18:28:01.813Z,87.40
2019-02-23T18:30:43.976Z,87.70
2019-02-23T18:33:25.942Z,87.70
2019-02-23T18:36:07.790Z,87.80
2019-02-23T18:38:49.654Z,88.70
2019-02-23T18:41:31.733Z,89.40
2019-02-23T18:44:14.279Z,88.90
2019-02-23T18:46:56.564Z,90.00
2019-02-23T18:49:39.417Z,89.80
2019-02-23T18:52:21.666Z,90.00
2019-02-23T18:57:53.315Z,90.60
2019-02-23T19:00:35.291Z,91.20
2019-02-23T19:03:16.902Z,91.30
2019-02-23T19:05:58.731Z,91.20
2019-02-23T19:08:40.837Z,91.70
2019-02-23T19:11:22.642Z,91.70
2019-02-23T19:14:04.616Z,91.90
2019-02-23T19:16:46.733Z,92.00
2019-02-23T19:19:28.985Z,92.10
2019-02-23T19:22:10.745Z,92.10
2019-02-23T19:24:53.033Z,92.20
2019-02-23T19:27:35.851Z,92.70
2019-02-23T19:30:17.837Z,92.80
2019-02-23T19:32:59.611Z,92.90
2019-02-23T19:35:41.646Z,93.00
2019-02-23T19:38:23.672Z,93.30
2019-02-23T19:41:05.974Z,93.70
2019-02-23T19:43:47.737Z,93.70
2019-02-23T19:46:29.793Z,93.80
2019-02-23T19:49:12.072Z,94.20
2019-02-23T19:51:56.575Z,94.60
2019-02-23T19:54:37.965Z,94.60
2019-02-23T19:57:08.340Z,94.50
2019-02-23T19:59:49.925Z,94.90
2019-02-23T20:02:32.631Z,95.30
2019-02-23T20:05:15.758Z,96.10
2019-02-23T20:07:58.358Z,95.90
2019-02-23T20:10:40.482Z,96.70
2019-02-23T20:13:22.337Z,96.50
2019-02-23T20:16:10.208Z,96.70
2019-02-23T20:21:49.600Z,97.20
2019-02-23T20:24:31.494Z,96.80
2019-02-23T20:27:13.299Z,97.10
2019-02-23T20:29:55.985Z,97.80
2019-02-23T20:35:27.643Z,98.60
2019-02-23T20:38:16.517Z,98.80
2019-02-23T20:40:59.304Z,99.00
2019-02-23T20:43:45.461Z,99.50
2019-02-23T20:46:28.059Z,99.70
2019-02-23T20:49:12.078Z,99.40
2019-02-23T20:51:58.587Z,99.50
2019-02-23T20:55:04.958Z,99.80
2019-02-23T20:57:42.709Z,99.90
2019-02-23T21:03:09.394Z,99.90
2019-02-23T21:05:51.423Z,99.90
2019-02-23T21:08:33.510Z,99.90
2019-02-23T21:11:15.411Z,99.50
2019-02-23T21:13:59.327Z,99.20
2019-02-23T21:16:41.084Z,99.20
2019-02-23T21:19:23.301Z,98.80
2019-02-23T21:22:05.517Z,99.30
2019-02-23T21:25:13.583Z,99.90
2019-02-23T21:27:55.375Z,99.90
2019-02-23T21:30:25.773Z,99.90
2019-02-23T21:33:16.164Z,99.90
2019-02-23T21:35:58.167Z,99.70
2019-02-23T21:38:40.350Z,99.90
2019-02-23T21:41:10.889Z,99.90
2019-02-23T21:44:00.242Z,99.90
2019-02-23T21:46:42.317Z,99.90
2019-02-23T21:49:24.565Z,99.90
2019-02-23T21:52:07.201Z,99.80
